Time,TemperatureF,DewpointF,PressureIn,WindDirection,WindDirectionDegrees,WindSpeedMPH,WindSpeedGustMPH,Humidity,HourlyPrecipIn,Conditions,Clouds,dailyrainin,SoftwareType,DateUTC
2013-03-03 00:13:00,25.3,20.0,29.76,NW,323,8.0,12.0,79,0.00,,,0.00,weatherlink.com 1.10,2013-03-03 05:13:00,
2013-03-03 00:28:00,25.4,19.0,29.76,NW,320,10.0,12.0,78,0.00,,,0.00,weatherlink.com 1.10,2013-03-03 05:28:00,
2013-03-03 00:43:00,25.3,19.0,29.76,NNW,329,3.0,10.0,78,0.00,,,0.00,weatherlink.com 1.10,2013-03-03 05:43:00,
2013-03-03 00:58:00,25.1,19.0,29.76,NW,321,5.0,13.0,77,0.00,,,0.00,weatherlink.com 1.10,2013-03-03 05:58:00,
2013-03-03 01:14:00,25.0,19.0,29.76,NNW,330,5.0,12.0,77,0.00,,,0.00,weatherlink.com 1.10,2013-03-03 06:14:00,
2013-03-03 01:29:00,24.9,18.0,29.77,NW,311,4.0,11.0,76,0.00,,,0.00,weatherlink.com 1.10,2013-03-03 06:29:00,
2013-03-03 01:44:00,24.8,18.0,29.77,NW,326,4.0,11.0,76,0.00,,,0.00,weatherlink.com 1.10,2013-03-03 06:44:00,
2013-03-03 01:59:00,24.7,18.0,29.76,WNW,302,5.0,11.0,75,0.00,,,0.00,weatherlink.com 1.10,2013-03-03 06:59:00,
2013-03-03 02:14:00,24.7,18.0,29.76,NW,314,3.0,11.0,75,0.00,,,0.00,weatherlink.com 1.10,2013-03-03 07:14:00,
2013-03-03 02:29:00,24.5,18.0,29.76,NNW,328,5.0,11.0,75,0.00,,,0.00,weatherlink.com 1.10,2013-03-03 07:29:00,
2013-03-03 02:44:00,24.4,17.0,29.76,NW,321,3.0,8.0,74,0.00,,,0.00,weatherlink.com 1.10,2013-03-03 07:44:00,
2013-03-03 02:59:00,24.3,17.0,29.75,NNW,343,10.0,10.0,75,0.00,,,0.00,weatherlink.com 1.10,2013-03-03 07:59:00,
2013-03-03 03:14:00,24.3,17.0,29.75,NW,311,1.0,9.0,74,0.00,,,0.00,weatherlink.com 1.10,2013-03-03 08:14:00,
2013-03-03 03:29:00,24.1,17.0,29.75,WNW,285,6.0,9.0,74,0.00,,,0.00,weatherlink.com 1.10,2013-03-03 08:29:00,
2013-03-03 03:44:00,23.9,17.0,29.75,NNW,339,6.0,11.0,74,0.00,,,0.00,weatherlink.com 1.10,2013-03-03 08:44:00,
2013-03-03 03:59:00,23.6,16.0,29.75,North,349,5.0,10.0,73,0.00,,,0.00,weatherlink.com 1.10,2013-03-03 08:59:00,
2013-03-03 04:14:00,23.4,16.0,29.75,NW,316,3.0,10.0,74,0.00,,,0.00,weatherlink.com 1.10,2013-03-03 09:14:00,
2013-03-03 04:29:00,23.2,16.0,29.75,North,4,5.0,13.0,73,0.00,,,0.00,weatherlink.com 1.10,2013-03-03 09:29:00,
2013-03-03 04:44:00,22.8,15.0,29.75,NW,326,5.0,12.0,73,0.00,,,0.00,weatherlink.com 1.10,2013-03-03 09:44:00,
2013-03-03 04:59:00,22.5,15.0,29.76,NNW,328,2.0,6.0,74,0.00,,,0.00,weatherlink.com 1.10,2013-03-03 09:59:00,
2013-03-03 05:14:00,22.3,16.0,29.76,NNW,329,2.0,5.0,75,0.00,,,0.00,weatherlink.com 1.10,2013-03-03 10:14:00,
2013-03-03 05:29:00,22.5,16.0,29.76,NNW,332,2.0,7.0,75,0.00,,,0.00,weatherlink.com 1.10,2013-03-03 10:29:00,
2013-03-03 05:44:00,22.6,16.0,29.77,NW,326,3.0,9.0,75,0.00,,,0.00,weatherlink.com 1.10,2013-03-03 10:44:00,
2013-03-03 05:59:00,22.6,15.0,29.77,NNE,13,5.0,10.0,74,0.00,,,0.00,weatherlink.com 1.10,2013-03-03 10:59:00,
2013-03-03 06:14:00,22.5,15.0,29.77,NNW,346,6.0,7.0,74,0.00,,,0.00,weatherlink.com 1.10,2013-03-03 11:14:00,
2013-03-03 06:29:00,22.5,15.0,29.77,NW,305,9.0,11.0,74,0.00,,,0.00,weatherlink.com 1.10,2013-03-03 11:29:00,
2013-03-03 06:44:00,22.6,15.0,29.77,WNW,293,11.0,14.0,74,0.00,,,0.00,weatherlink.com 1.10,2013-03-03 11:44:00,
2013-03-03 06:59:00,22.5,15.0,29.77,NW,326,2.0,8.0,74,0.00,,,0.00,weatherlink.com 1.10,2013-03-03 11:59:00,
2013-03-03 07:14:00,22.7,16.0,29.77,NW,312,4.0,8.0,74,0.00,,,0.00,weatherlink.com 1.10,2013-03-03 12:14:00,
2013-03-03 07:29:00,23.0,16.0,29.78,NW,314,1.0,9.0,73,0.00,,,0.00,weatherlink.com 1.10,2013-03-03 12:29:00,
2013-03-03 07:44:00,23.4,16.0,29.78,NNW,336,4.0,8.0,74,0.00,,,0.00,weatherlink.com 1.10,2013-03-03 12:44:00,
2013-03-03 07:59:00,23.4,16.0,29.78,NW,314,6.0,9.0,74,0.00,,,0.00,weatherlink.com 1.10,2013-03-03 12:59:00,
2013-03-03 08:14:00,23.5,17.0,29.78,ENE,77,6.0,10.0,75,0.00,,,0.00,weatherlink.com 1.10,2013-03-03 13:14:00,
2013-03-03 08:29:00,23.4,17.0,29.78,NW,321,9.0,14.0,76,0.00,,,0.00,weatherlink.com 1.10,2013-03-03 13:29:00,
2013-03-03 08:44:00,24.2,18.0,29.77,North,360,5.0,11.0,76,0.00,,,0.00,weatherlink.com 1.10,2013-03-03 13:44:00,
2013-03-03 08:59:00,25.2,18.0,29.77,NNW,328,2.0,8.0,74,0.00,,,0.00,weatherlink.com 1.10,2013-03-03 13:59:00,
2013-03-03 09:14:00,26.1,19.0,29.77,NNW,340,3.0,8.0,73,0.00,,,0.00,weatherlink.com 1.10,2013-03-03 14:14:00,
2013-03-03 09:29:00,26.0,19.0,29.77,NNW,340,3.0,10.0,75,0.00,,,0.00,weatherlink.com 1.10,2013-03-03 14:29:00,
2013-03-03 09:44:00,25.3,19.0,29.77,NNW,328,7.0,11.0,77,0.00,,,0.00,weatherlink.com 1.10,2013-03-03 14:44:00,
2013-03-03 09:59:00,25.5,19.0,29.76,WNW,293,4.0,16.0,77,0.00,,,0.00,weatherlink.com 1.10,2013-03-03 14:59:00,
2013-03-03 10:14:00,25.7,19.0,29.76,NW,311,9.0,12.0,76,0.00,,,0.00,weatherlink.com 1.10,2013-03-03 15:14:00,
2013-03-03 10:29:00,26.0,19.0,29.76,NNW,333,11.0,15.0,75,0.00,,,0.00,weatherlink.com 1.10,2013-03-03 15:29:00,
2013-03-03 10:44:00,26.6,20.0,29.75,NNW,335,5.0,12.0,76,0.00,,,0.00,weatherlink.com 1.10,2013-03-03 15:44:00,
2013-03-03 10:59:00,27.0,20.0,29.75,North,360,11.0,14.0,75,0.00,,,0.00,weatherlink.com 1.10,2013-03-03 15:59:00,
2013-03-03 11:15:00,27.9,21.0,29.75,North,351,8.0,13.0,75,0.00,,,0.00,weatherlink.com 1.10,2013-03-03 16:15:00,
2013-03-03 11:30:00,27.7,20.0,29.75,NNW,343,6.0,14.0,74,0.00,,,0.00,weatherlink.com 1.10,2013-03-03 16:30:00,
2013-03-03 11:45:00,27.9,20.0,29.75,NNW,332,9.0,16.0,73,0.00,,,0.00,weatherlink.com 1.10,2013-03-03 16:45:00,
2013-03-03 12:00:00,28.1,21.0,29.74,NNW,330,6.0,15.0,75,0.00,,,0.00,weatherlink.com 1.10,2013-03-03 17:00:00,
2013-03-03 12:15:00,28.1,21.0,29.74,West,276,9.0,13.0,75,0.00,,,0.00,weatherlink.com 1.10,2013-03-03 17:15:00,
2013-03-03 12:30:00,28.7,21.0,29.73,NW,321,8.0,15.0,73,0.00,,,0.00,weatherlink.com 1.10,2013-03-03 17:30:00,
2013-03-03 12:45:00,28.9,22.0,29.73,NW,312,8.0,14.0,74,0.00,,,0.00,weatherlink.com 1.10,2013-03-03 17:45:00,
2013-03-03 13:00:00,29.4,22.0,29.73,NNW,347,6.0,12.0,73,0.00,,,0.00,weatherlink.com 1.10,2013-03-03 18:00:00,
2013-03-03 13:15:00,29.4,22.0,29.73,NNW,343,8.0,12.0,75,0.00,,,0.00,weatherlink.com 1.10,2013-03-03 18:15:00,
2013-03-03 13:30:00,29.6,23.0,29.72,NW,304,3.0,10.0,75,0.00,,,0.00,weatherlink.com 1.10,2013-03-03 18:30:00,
2013-03-03 13:45:00,29.5,22.0,29.72,NW,307,8.0,16.0,73,0.00,,,0.00,weatherlink.com 1.10,2013-03-03 18:45:00,
2013-03-03 14:00:00,30.3,23.0,29.72,North,351,6.0,10.0,73,0.00,,,0.00,weatherlink.com 1.10,2013-03-03 19:00:00,
2013-03-03 14:15:00,30.2,22.0,29.72,NNE,32,7.0,13.0,72,0.00,,,0.00,weatherlink.com 1.10,2013-03-03 19:15:00,
2013-03-03 14:30:00,29.5,22.0,29.72,NW,314,5.0,15.0,73,0.00,,,0.00,weatherlink.com 1.10,2013-03-03 19:30:00,
2013-03-03 14:45:00,29.7,22.0,29.72,North,354,3.0,12.0,74,0.00,,,0.00,weatherlink.com 1.10,2013-03-03 19:45:00,
2013-03-03 15:00:00,29.6,22.0,29.72,WNW,302,11.0,18.0,74,0.00,,,0.00,weatherlink.com 1.10,2013-03-03 20:00:00,
2013-03-03 15:15:00,30.1,21.0,29.71,NNW,345,8.0,13.0,69,0.00,,,0.00,weatherlink.com 1.10,2013-03-03 20:15:00,
2013-03-03 15:30:00,30.4,21.0,29.71,NNW,328,10.0,20.0,67,0.00,,,0.00,weatherlink.com 1.10,2013-03-03 20:30:00,
2013-03-03 15:45:00,30.9,21.0,29.71,NW,314,9.0,19.0,67,0.00,,,0.00,weatherlink.com 1.10,2013-03-03 20:45:00,
2013-03-03 16:00:00,31.4,21.0,29.71,NW,315,3.0,15.0,66,0.00,,,0.00,weatherlink.com 1.10,2013-03-03 21:00:00,
2013-03-03 16:15:00,31.0,21.0,29.71,NNW,338,8.0,16.0,66,0.00,,,0.00,weatherlink.com 1.10,2013-03-03 21:15:00,
2013-03-03 16:30:00,30.5,21.0,29.72,NW,325,5.0,14.0,67,0.00,,,0.00,weatherlink.com 1.10,2013-03-03 21:30:00,
2013-03-03 16:45:00,29.9,21.0,29.72,NW,311,3.0,15.0,69,0.00,,,0.00,weatherlink.com 1.10,2013-03-03 21:45:00,
2013-03-03 17:00:00,29.7,21.0,29.72,NNW,332,3.0,13.0,70,0.00,,,0.00,weatherlink.com 1.10,2013-03-03 22:00:00,
2013-03-03 17:15:00,29.3,20.0,29.72,NNW,337,12.0,16.0,69,0.00,,,0.00,weatherlink.com 1.10,2013-03-03 22:15:00,
2013-03-03 17:30:00,28.9,20.0,29.72,NNW,334,5.0,20.0,70,0.00,,,0.00,weatherlink.com 1.10,2013-03-03 22:30:00,
2013-03-03 17:45:00,28.6,20.0,29.72,NNW,343,8.0,21.0,70,0.00,,,0.00,weatherlink.com 1.10,2013-03-03 22:45:00,
2013-03-03 18:00:00,28.1,19.0,29.72,NW,304,9.0,20.0,70,0.00,,,0.00,weatherlink.com 1.10,2013-03-03 23:00:00,
2013-03-03 18:15:00,27.8,20.0,29.73,NW,323,8.0,19.0,71,0.00,,,0.00,weatherlink.com 1.10,2013-03-03 23:15:00,
2013-03-03 18:30:00,27.5,19.0,29.73,WNW,302,11.0,18.0,71,0.00,,,0.00,weatherlink.com 1.10,2013-03-03 23:30:00,
2013-03-03 18:45:00,27.2,19.0,29.74,NW,311,10.0,16.0,71,0.00,,,0.00,weatherlink.com 1.10,2013-03-03 23:45:00,
2013-03-03 19:00:00,26.9,19.0,29.75,NNW,330,5.0,21.0,72,0.00,,,0.00,weatherlink.com 1.10,2013-03-04 00:00:00,
2013-03-03 19:15:00,26.8,19.0,29.74,WNW,297,9.0,19.0,72,0.00,,,0.00,weatherlink.com 1.10,2013-03-04 00:15:00,
2013-03-03 19:30:00,26.6,19.0,29.74,NW,318,11.0,20.0,72,0.00,,,0.00,weatherlink.com 1.10,2013-03-04 00:30:00,
2013-03-03 19:45:00,26.3,18.0,29.75,West,262,11.0,22.0,72,0.00,,,0.00,weatherlink.com 1.10,2013-03-04 00:45:00,
2013-03-03 20:00:00,26.1,18.0,29.75,NW,326,19.0,22.0,72,0.00,,,0.00,weatherlink.com 1.10,2013-03-04 01:00:00,
2013-03-03 20:15:00,25.9,18.0,29.76,NW,325,6.0,21.0,72,0.00,,,0.00,weatherlink.com 1.10,2013-03-04 01:15:00,
2013-03-03 20:30:00,25.7,18.0,29.76,WNW,297,6.0,20.0,73,0.00,,,0.00,weatherlink.com 1.10,2013-03-04 01:30:00,
2013-03-03 20:46:00,25.7,18.0,29.77,NW,311,16.0,21.0,73,0.00,,,0.00,weatherlink.com 1.10,2013-03-04 01:46:00,
2013-03-03 21:01:00,25.7,18.0,29.77,NW,304,12.0,23.0,73,0.00,,,0.00,weatherlink.com 1.10,2013-03-04 02:01:00,
2013-03-03 21:16:00,25.6,18.0,29.77,NW,318,19.0,27.0,74,0.00,,,0.00,weatherlink.com 1.10,2013-03-04 02:16:00,
2013-03-03 21:31:00,25.6,19.0,29.77,NNW,332,15.0,24.0,75,0.00,,,0.00,weatherlink.com 1.10,2013-03-04 02:31:00,
2013-03-03 21:46:00,25.6,19.0,29.77,NW,316,12.0,20.0,75,0.00,,,0.00,weatherlink.com 1.10,2013-03-04 02:46:00,
2013-03-03 22:01:00,25.6,19.0,29.77,NNW,333,17.0,20.0,76,0.00,,,0.00,weatherlink.com 1.10,2013-03-04 03:01:00,
2013-03-03 22:16:00,25.6,19.0,29.77,NNW,328,8.0,23.0,77,0.00,,,0.00,weatherlink.com 1.10,2013-03-04 03:16:00,
2013-03-03 22:31:00,25.6,19.0,29.77,NW,320,5.0,18.0,77,0.00,,,0.00,weatherlink.com 1.10,2013-03-04 03:31:00,
2013-03-03 22:46:00,25.5,19.0,29.77,NW,311,12.0,21.0,77,0.00,,,0.00,weatherlink.com 1.10,2013-03-04 03:46:00,
2013-03-03 23:01:00,25.5,20.0,29.77,NNW,336,7.0,13.0,78,0.00,,,0.00,weatherlink.com 1.10,2013-03-04 04:01:00,
2013-03-03 23:16:00,25.4,19.0,29.77,NW,320,10.0,19.0,78,0.00,,,0.00,weatherlink.com 1.10,2013-03-04 04:16:00,
2013-03-03 23:31:00,25.3,20.0,29.77,NNW,328,9.0,16.0,79,0.00,,,0.00,weatherlink.com 1.10,2013-03-04 04:31:00,
2013-03-03 23:46:00,25.3,20.0,29.76,NNW,328,8.0,16.0,80,0.00,,,0.00,weatherlink.com 1.10,2013-03-04 04:46:00,